sensor_id;sensor_type;location;lat;lon;timestamp;temperature;humidity
27848;DHT22;15212;48.830;8.730;2024-01-07T00:00:25;3.20;99.90
27848;DHT22;15212;48.830;8.730;2024-01-07T00:02:53;3.20;99.90
27848;DHT22;15212;48.830;8.730;2024-01-07T00:05:21;3.20;99.90
27848;DHT22;15212;48.830;8.730;2024-01-07T00:07:50;3.20;99.90
27848;DHT22;15212;48.830;8.730;2024-01-07T00:10:18;3.20;99.90
27848;DHT22;15212;48.830;8.730;2024-01-07T00:12:47;3.20;99.90
27848;DHT22;15212;48.830;8.730;2024-01-07T00:15:17;3.20;99.90
27848;DHT22;15212;48.830;8.730;2024-01-07T00:17:45;3.20;99.90
27848;DHT22;15212;48.830;8.730;2024-01-07T00:20:13;3.20;99.90
27848;DHT22;15212;48.830;8.730;2024-01-07T00:22:42;3.20;99.90
27848;DHT22;15212;48.830;8.730;2024-01-07T00:25:10;3.20;99.90
27848;DHT22;15212;48.830;8.730;2024-01-07T00:27:39;3.20;99.90
27848;DHT22;15212;48.830;8.730;2024-01-07T00:30:07;3.10;99.90
27848;DHT22;15212;48.830;8.730;2024-01-07T00:32:36;3.10;99.90
27848;DHT22;15212;48.830;8.730;2024-01-07T00:35:04;3.10;99.90
27848;DHT22;15212;48.830;8.730;2024-01-07T00:37:33;3.10;99.90
27848;DHT22;15212;48.830;8.730;2024-01-07T00:40:01;3.20;99.90
27848;DHT22;15212;48.830;8.730;2024-01-07T00:42:30;3.20;99.90
27848;DHT22;15212;48.830;8.730;2024-01-07T00:44:59;3.10;99.90
27848;DHT22;15212;48.830;8.730;2024-01-07T00:47:27;3.10;99.90
27848;DHT22;15212;48.830;8.730;2024-01-07T00:49:55;3.10;99.90
27848;DHT22;15212;48.830;8.730;2024-01-07T00:52:24;3.10;99.90
27848;DHT22;15212;48.830;8.730;2024-01-07T00:54:52;3.10;99.90
27848;DHT22;15212;48.830;8.730;2024-01-07T00:57:21;3.10;99.90
27848;DHT22;15212;48.830;8.730;2024-01-07T00:59:50;3.00;99.90
27848;DHT22;15212;48.830;8.730;2024-01-07T01:02:18;3.10;99.90
27848;DHT22;15212;48.830;8.730;2024-01-07T01:04:47;3.10;99.90
27848;DHT22;15212;48.830;8.730;2024-01-07T01:07:15;3.10;99.90
27848;DHT22;15212;48.830;8.730;2024-01-07T01:09:44;3.10;99.90
27848;DHT22;15212;48.830;8.730;2024-01-07T01:12:12;3.10;99.90
27848;DHT22;15212;48.830;8.730;2024-01-07T01:14:41;3.00;99.90
27848;DHT22;15212;48.830;8.730;2024-01-07T01:17:09;3.00;99.90
27848;DHT22;15212;48.830;8.730;2024-01-07T01:19:38;3.00;99.90
27848;DHT22;15212;48.830;8.730;2024-01-07T01:22:06;3.00;99.90
27848;DHT22;15212;48.830;8.730;2024-01-07T01:24:34;3.00;99.90
27848;DHT22;15212;48.830;8.730;2024-01-07T01:27:03;3.00;99.90
27848;DHT22;15212;48.830;8.730;2024-01-07T01:29:31;3.00;99.90
27848;DHT22;15212;48.830;8.730;2024-01-07T01:32:00;3.00;99.90
27848;DHT22;15212;48.830;8.730;2024-01-07T01:34:28;3.00;99.90
27848;DHT22;15212;48.830;8.730;2024-01-07T01:36:56;2.90;99.90
27848;DHT22;15212;48.830;8.730;2024-01-07T01:39:25;3.00;99.90
27848;DHT22;15212;48.830;8.730;2024-01-07T01:41:53;3.00;99.90
27848;DHT22;15212;48.830;8.730;2024-01-07T01:44:23;3.00;99.90
27848;DHT22;15212;48.830;8.730;2024-01-07T01:46:53;3.10;99.90
27848;DHT22;15212;48.830;8.730;2024-01-07T01:49:23;3.00;99.90
27848;DHT22;15212;48.830;8.730;2024-01-07T01:51:52;3.00;99.90
27848;DHT22;15212;48.830;8.730;2024-01-07T01:54:21;3.00;99.90
27848;DHT22;15212;48.830;8.730;2024-01-07T01:56:50;2.90;99.90
27848;DHT22;15212;48.830;8.730;2024-01-07T01:59:19;2.90;99.90
27848;DHT22;15212;48.830;8.730;2024-01-07T02:01:48;2.80;99.90
27848;DHT22;15212;48.830;8.730;2024-01-07T02:04:17;2.80;99.90
27848;DHT22;15212;48.830;8.730;2024-01-07T02:06:46;2.70;99.90
27848;DHT22;15212;48.830;8.730;2024-01-07T02:09:14;2.80;99.90
27848;DHT22;15212;48.830;8.730;2024-01-07T02:11:43;2.80;99.90
27848;DHT22;15212;48.830;8.730;2024-01-07T02:14:11;2.80;99.90
27848;DHT22;15212;48.830;8.730;2024-01-07T02:16:39;2.80;99.90
27848;DHT22;15212;48.830;8.730;2024-01-07T02:19:08;2.80;99.90
27848;DHT22;15212;48.830;8.730;2024-01-07T02:21:36;2.70;99.90
27848;DHT22;15212;48.830;8.730;2024-01-07T02:24:05;2.70;99.90
27848;DHT22;15212;48.830;8.730;2024-01-07T02:26:34;2.70;99.90
27848;DHT22;15212;48.830;8.730;2024-01-07T02:29:02;2.70;99.90
27848;DHT22;15212;48.830;8.730;2024-01-07T02:31:31;2.70;99.90
27848;DHT22;15212;48.830;8.730;2024-01-07T02:33:59;2.70;99.90
27848;DHT22;15212;48.830;8.730;2024-01-07T02:36:27;2.70;99.90
27848;DHT22;15212;48.830;8.730;2024-01-07T02:38:56;2.70;99.90
27848;DHT22;15212;48.830;8.730;2024-01-07T02:41:24;2.70;99.90
27848;DHT22;15212;48.830;8.730;2024-01-07T02:43:53;2.70;99.90
27848;DHT22;15212;48.830;8.730;2024-01-07T02:46:23;2.70;99.90
27848;DHT22;15212;48.830;8.730;2024-01-07T02:48:52;2.80;99.90
27848;DHT22;15212;48.830;8.730;2024-01-07T02:51:20;2.80;99.90
27848;DHT22;15212;48.830;8.730;2024-01-07T02:53:49;2.80;99.90
27848;DHT22;15212;48.830;8.730;2024-01-07T02:56:17;2.80;99.90
27848;DHT22;15212;48.830;8.730;2024-01-07T02:58:45;2.90;99.90
27848;DHT22;15212;48.830;8.730;2024-01-07T03:01:14;2.80;99.90
27848;DHT22;15212;48.830;8.730;2024-01-07T03:03:42;2.90;99.90
27848;DHT22;15212;48.830;8.730;2024-01-07T03:06:10;2.90;99.90
27848;DHT22;15212;48.830;8.730;2024-01-07T03:08:39;2.80;99.90
27848;DHT22;15212;48.830;8.730;2024-01-07T03:11:07;2.90;99.90
27848;DHT22;15212;48.830;8.730;2024-01-07T03:13:36;2.90;99.90
27848;DHT22;15212;48.830;8.730;2024-01-07T03:16:04;2.90;99.90
27848;DHT22;15212;48.830;8.730;2024-01-07T03:18:33;2.90;99.90
27848;DHT22;15212;48.830;8.730;2024-01-07T03:21:02;2.90;99.90
27848;DHT22;15212;48.830;8.730;2024-01-07T03:23:30;2.90;99.90
27848;DHT22;15212;48.830;8.730;2024-01-07T03:25:58;2.90;99.90
27848;DHT22;15212;48.830;8.730;2024-01-07T03:28:27;2.80;99.90
27848;DHT22;15212;48.830;8.730;2024-01-07T03:30:55;2.90;99.90
27848;DHT22;15212;48.830;8.730;2024-01-07T03:33:24;2.90;99.90
27848;DHT22;15212;48.830;8.730;2024-01-07T03:35:52;2.90;99.90
27848;DHT22;15212;48.830;8.730;2024-01-07T03:38:20;2.90;99.90
27848;DHT22;15212;48.830;8.730;2024-01-07T03:40:49;2.90;99.90
27848;DHT22;15212;48.830;8.730;2024-01-07T03:43:17;2.90;99.90
27848;DHT22;15212;48.830;8.730;2024-01-07T03:45:45;2.90;99.90
27848;DHT22;15212;48.830;8.730;2024-01-07T03:48:15;2.90;99.90
27848;DHT22;15212;48.830;8.730;2024-01-07T03:50:44;2.90;99.90
27848;DHT22;15212;48.830;8.730;2024-01-07T03:53:13;2.90;99.90
27848;DHT22;15212;48.830;8.730;2024-01-07T03:55:42;2.90;99.90
27848;DHT22;15212;48.830;8.730;2024-01-07T03:58:10;2.90;99.90
27848;DHT22;15212;48.830;8.730;2024-01-07T04:00:39;3.00;99.90
27848;DHT22;15212;48.830;8.730;2024-01-07T04:03:07;3.00;99.90
27848;DHT22;15212;48.830;8.730;2024-01-07T04:05:36;2.90;99.90
27848;DHT22;15212;48.830;8.730;2024-01-07T04:08:05;2.90;99.90
27848;DHT22;15212;48.830;8.730;2024-01-07T04:10:34;2.90;99.90
27848;DHT22;15212;48.830;8.730;2024-01-07T04:13:02;2.80;99.90
27848;DHT22;15212;48.830;8.730;2024-01-07T04:15:31;2.90;99.90
27848;DHT22;15212;48.830;8.730;2024-01-07T04:18:03;2.90;99.90
27848;DHT22;15212;48.830;8.730;2024-01-07T04:20:31;2.90;99.90
27848;DHT22;15212;48.830;8.730;2024-01-07T04:23:00;2.90;99.90
27848;DHT22;15212;48.830;8.730;2024-01-07T04:25:28;2.80;99.90
27848;DHT22;15212;48.830;8.730;2024-01-07T04:27:57;2.80;99.90
27848;DHT22;15212;48.830;8.730;2024-01-07T04:30:25;2.90;99.90
27848;DHT22;15212;48.830;8.730;2024-01-07T04:32:53;2.80;99.90
27848;DHT22;15212;48.830;8.730;2024-01-07T04:35:22;2.90;99.90
27848;DHT22;15212;48.830;8.730;2024-01-07T04:37:50;2.90;99.90
27848;DHT22;15212;48.830;8.730;2024-01-07T04:40:19;2.90;99.90
27848;DHT22;15212;48.830;8.730;2024-01-07T04:42:47;2.90;99.90
27848;DHT22;15212;48.830;8.730;2024-01-07T04:45:15;2.90;99.90
27848;DHT22;15212;48.830;8.730;2024-01-07T04:47:44;2.90;99.90
27848;DHT22;15212;48.830;8.730;2024-01-07T04:50:12;2.90;99.90
27848;DHT22;15212;48.830;8.730;2024-01-07T04:52:41;2.90;99.90
27848;DHT22;15212;48.830;8.730;2024-01-07T04:55:10;2.90;99.90
27848;DHT22;15212;48.830;8.730;2024-01-07T04:57:38;2.90;99.90
27848;DHT22;15212;48.830;8.730;2024-01-07T05:00:07;2.90;99.90
27848;DHT22;15212;48.830;8.730;2024-01-07T05:02:36;2.90;99.90
27848;DHT22;15212;48.830;8.730;2024-01-07T05:05:04;3.00;99.90
27848;DHT22;15212;48.830;8.730;2024-01-07T05:07:35;3.00;99.90
27848;DHT22;15212;48.830;8.730;2024-01-07T05:10:04;3.00;99.90
27848;DHT22;15212;48.830;8.730;2024-01-07T05:12:33;2.90;99.90
27848;DHT22;15212;48.830;8.730;2024-01-07T05:15:01;2.90;99.90
27848;DHT22;15212;48.830;8.730;2024-01-07T05:17:30;2.90;99.90
27848;DHT22;15212;48.830;8.730;2024-01-07T05:19:58;2.90;99.90
27848;DHT22;15212;48.830;8.730;2024-01-07T05:22:26;2.90;99.90
27848;DHT22;15212;48.830;8.730;2024-01-07T05:24:55;2.90;99.90
27848;DHT22;15212;48.830;8.730;2024-01-07T05:27:23;2.90;99.90
27848;DHT22;15212;48.830;8.730;2024-01-07T05:29:52;2.90;99.90
27848;DHT22;15212;48.830;8.730;2024-01-07T05:32:22;2.90;99.90
27848;DHT22;15212;48.830;8.730;2024-01-07T05:34:50;2.90;99.90
27848;DHT22;15212;48.830;8.730;2024-01-07T05:37:18;2.80;99.90
27848;DHT22;15212;48.830;8.730;2024-01-07T05:39:47;2.80;99.90
27848;DHT22;15212;48.830;8.730;2024-01-07T05:42:15;2.80;99.90
27848;DHT22;15212;48.830;8.730;2024-01-07T05:44:43;2.80;99.90
27848;DHT22;15212;48.830;8.730;2024-01-07T05:47:12;2.80;99.90
27848;DHT22;15212;48.830;8.730;2024-01-07T05:49:40;2.80;99.90
27848;DHT22;15212;48.830;8.730;2024-01-07T05:52:09;2.80;99.90
27848;DHT22;15212;48.830;8.730;2024-01-07T05:54:37;2.80;99.90
27848;DHT22;15212;48.830;8.730;2024-01-07T05:57:05;2.80;99.90
27848;DHT22;15212;48.830;8.730;2024-01-07T05:59:34;2.80;99.90
27848;DHT22;15212;48.830;8.730;2024-01-07T06:02:02;2.80;99.90
27848;DHT22;15212;48.830;8.730;2024-01-07T06:04:31;2.70;99.90
27848;DHT22;15212;48.830;8.730;2024-01-07T06:06:59;2.70;99.90
27848;DHT22;15212;48.830;8.730;2024-01-07T06:09:27;2.80;99.90
27848;DHT22;15212;48.830;8.730;2024-01-07T06:11:56;2.90;99.90
27848;DHT22;15212;48.830;8.730;2024-01-07T06:14:24;2.90;99.90
27848;DHT22;15212;48.830;8.730;2024-01-07T06:16:52;2.90;99.90
27848;DHT22;15212;48.830;8.730;2024-01-07T06:19:21;2.90;99.90
27848;DHT22;15212;48.830;8.730;2024-01-07T06:21:49;2.90;99.90
27848;DHT22;15212;48.830;8.730;2024-01-07T06:24:18;2.90;99.90
27848;DHT22;15212;48.830;8.730;2024-01-07T06:26:46;3.00;99.90
27848;DHT22;15212;48.830;8.730;2024-01-07T06:29:15;2.90;99.90
27848;DHT22;15212;48.830;8.730;2024-01-07T06:31:45;2.90;99.90
27848;DHT22;15212;48.830;8.730;2024-01-07T06:34:14;2.90;99.90
27848;DHT22;15212;48.830;8.730;2024-01-07T06:36:43;2.90;99.90
27848;DHT22;15212;48.830;8.730;2024-01-07T06:39:12;2.90;99.90
27848;DHT22;15212;48.830;8.730;2024-01-07T06:41:40;2.90;99.90
27848;DHT22;15212;48.830;8.730;2024-01-07T06:44:09;2.90;99.90
27848;DHT22;15212;48.830;8.730;2024-01-07T06:46:37;2.90;99.90
27848;DHT22;15212;48.830;8.730;2024-01-07T06:49:06;2.80;99.90
27848;DHT22;15212;48.830;8.730;2024-01-07T06:51:35;2.80;99.90
27848;DHT22;15212;48.830;8.730;2024-01-07T06:54:06;2.80;99.90
27848;DHT22;15212;48.830;8.730;2024-01-07T06:56:34;2.80;99.90
27848;DHT22;15212;48.830;8.730;2024-01-07T06:59:03;2.80;99.90
27848;DHT22;15212;48.830;8.730;2024-01-07T07:01:31;2.90;99.90
27848;DHT22;15212;48.830;8.730;2024-01-07T07:04:00;2.90;99.90
27848;DHT22;15212;48.830;8.730;2024-01-07T07:06:28;2.90;99.90
27848;DHT22;15212;48.830;8.730;2024-01-07T07:08:57;2.90;99.90
27848;DHT22;15212;48.830;8.730;2024-01-07T07:11:25;2.90;99.90
27848;DHT22;15212;48.830;8.730;2024-01-07T07:13:53;2.90;99.90
27848;DHT22;15212;48.830;8.730;2024-01-07T07:16:23;2.90;99.90
27848;DHT22;15212;48.830;8.730;2024-01-07T07:18:52;2.90;99.90
27848;DHT22;15212;48.830;8.730;2024-01-07T07:21:20;2.90;99.90
27848;DHT22;15212;48.830;8.730;2024-01-07T07:23:49;2.90;99.90
27848;DHT22;15212;48.830;8.730;2024-01-07T07:26:18;2.90;99.90
27848;DHT22;15212;48.830;8.730;2024-01-07T07:28:47;2.90;99.90
27848;DHT22;15212;48.830;8.730;2024-01-07T07:31:15;2.90;99.90
27848;DHT22;15212;48.830;8.730;2024-01-07T07:33:44;2.90;99.90
27848;DHT22;15212;48.830;8.730;2024-01-07T07:36:12;2.90;99.90
27848;DHT22;15212;48.830;8.730;2024-01-07T07:38:41;2.90;99.90
27848;DHT22;15212;48.830;8.730;2024-01-07T07:41:10;2.90;99.90
27848;DHT22;15212;48.830;8.730;2024-01-07T07:43:38;2.90;99.90
27848;DHT22;15212;48.830;8.730;2024-01-07T07:46:06;2.80;99.90
27848;DHT22;15212;48.830;8.730;2024-01-07T07:48:35;2.80;99.90
27848;DHT22;15212;48.830;8.730;2024-01-07T07:51:04;2.90;99.90
27848;DHT22;15212;48.830;8.730;2024-01-07T07:53:32;2.80;99.90
27848;DHT22;15212;48.830;8.730;2024-01-07T07:56:01;2.90;99.90
27848;DHT22;15212;48.830;8.730;2024-01-07T07:58:30;2.90;99.90
27848;DHT22;15212;48.830;8.730;2024-01-07T08:00:58;2.90;99.90
27848;DHT22;15212;48.830;8.730;2024-01-07T08:03:27;2.90;99.90
27848;DHT22;15212;48.830;8.730;2024-01-07T08:05:55;2.90;99.90
27848;DHT22;15212;48.830;8.730;2024-01-07T08:08:23;3.00;99.90
27848;DHT22;15212;48.830;8.730;2024-01-07T08:10:52;3.00;99.90
27848;DHT22;15212;48.830;8.730;2024-01-07T08:13:20;2.90;99.90
27848;DHT22;15212;48.830;8.730;2024-01-07T08:15:49;2.90;99.90
27848;DHT22;15212;48.830;8.730;2024-01-07T08:18:17;2.90;99.90
27848;DHT22;15212;48.830;8.730;2024-01-07T08:20:45;2.90;99.90
27848;DHT22;15212;48.830;8.730;2024-01-07T08:23:14;3.00;99.90
27848;DHT22;15212;48.830;8.730;2024-01-07T08:25:42;3.00;99.90
27848;DHT22;15212;48.830;8.730;2024-01-07T08:28:12;3.00;99.90
27848;DHT22;15212;48.830;8.730;2024-01-07T08:30:40;3.00;99.90
27848;DHT22;15212;48.830;8.730;2024-01-07T08:33:08;3.00;99.90
27848;DHT22;15212;48.830;8.730;2024-01-07T08:35:37;3.00;99.90
27848;DHT22;15212;48.830;8.730;2024-01-07T08:38:05;3.00;99.90
27848;DHT22;15212;48.830;8.730;2024-01-07T08:40:33;2.90;99.90
27848;DHT22;15212;48.830;8.730;2024-01-07T08:43:02;2.90;99.90
27848;DHT22;15212;48.830;8.730;2024-01-07T08:45:31;2.80;99.90
27848;DHT22;15212;48.830;8.730;2024-01-07T08:47:59;2.80;99.90
27848;DHT22;15212;48.830;8.730;2024-01-07T08:50:28;2.80;99.90
27848;DHT22;15212;48.830;8.730;2024-01-07T08:52:56;2.80;99.90
27848;DHT22;15212;48.830;8.730;2024-01-07T08:55:24;2.80;99.90
27848;DHT22;15212;48.830;8.730;2024-01-07T08:57:54;2.80;99.90
27848;DHT22;15212;48.830;8.730;2024-01-07T09:00:22;2.80;99.90
27848;DHT22;15212;48.830;8.730;2024-01-07T09:02:53;2.80;99.90
27848;DHT22;15212;48.830;8.730;2024-01-07T09:05:21;2.90;99.90
27848;DHT22;15212;48.830;8.730;2024-01-07T09:07:50;2.80;99.90
27848;DHT22;15212;48.830;8.730;2024-01-07T09:10:19;2.80;99.90
27848;DHT22;15212;48.830;8.730;2024-01-07T09:12:48;2.80;99.90
27848;DHT22;15212;48.830;8.730;2024-01-07T09:15:18;2.80;99.90
27848;DHT22;15212;48.830;8.730;2024-01-07T09:17:47;2.80;99.90
27848;DHT22;15212;48.830;8.730;2024-01-07T09:20:15;2.80;99.90
27848;DHT22;15212;48.830;8.730;2024-01-07T09:22:44;2.80;99.90
27848;DHT22;15212;48.830;8.730;2024-01-07T09:25:12;2.80;99.90
27848;DHT22;15212;48.830;8.730;2024-01-07T09:27:41;2.80;99.90
27848;DHT22;15212;48.830;8.730;2024-01-07T09:30:11;2.80;99.90
27848;DHT22;15212;48.830;8.730;2024-01-07T09:32:41;2.80;99.90
27848;DHT22;15212;48.830;8.730;2024-01-07T09:35:10;2.80;99.90
27848;DHT22;15212;48.830;8.730;2024-01-07T09:37:38;2.80;99.90
27848;DHT22;15212;48.830;8.730;2024-01-07T09:40:07;2.80;99.90
27848;DHT22;15212;48.830;8.730;2024-01-07T09:42:36;2.70;99.90
27848;DHT22;15212;48.830;8.730;2024-01-07T09:45:06;2.60;99.90
27848;DHT22;15212;48.830;8.730;2024-01-07T09:47:35;2.60;99.90
27848;DHT22;15212;48.830;8.730;2024-01-07T09:50:04;2.60;99.90
27848;DHT22;15212;48.830;8.730;2024-01-07T09:52:33;2.60;99.90
27848;DHT22;15212;48.830;8.730;2024-01-07T09:55:03;2.60;99.90
27848;DHT22;15212;48.830;8.730;2024-01-07T09:57:32;2.60;99.90
27848;DHT22;15212;48.830;8.730;2024-01-07T10:00:02;2.60;99.90
27848;DHT22;15212;48.830;8.730;2024-01-07T10:02:31;2.70;99.90
27848;DHT22;15212;48.830;8.730;2024-01-07T10:05:00;2.60;99.90
27848;DHT22;15212;48.830;8.730;2024-01-07T10:07:29;2.70;99.90
27848;DHT22;15212;48.830;8.730;2024-01-07T10:09:57;2.60;99.90
27848;DHT22;15212;48.830;8.730;2024-01-07T10:12:25;2.60;99.90
27848;DHT22;15212;48.830;8.730;2024-01-07T10:14:55;2.60;99.90
27848;DHT22;15212;48.830;8.730;2024-01-07T10:17:24;2.70;99.90
27848;DHT22;15212;48.830;8.730;2024-01-07T10:19:54;2.60;99.90
27848;DHT22;15212;48.830;8.730;2024-01-07T10:22:23;2.60;99.90
27848;DHT22;15212;48.830;8.730;2024-01-07T10:24:52;2.60;99.90
27848;DHT22;15212;48.830;8.730;2024-01-07T10:27:22;2.60;99.90
27848;DHT22;15212;48.830;8.730;2024-01-07T10:29:50;2.60;99.90
27848;DHT22;15212;48.830;8.730;2024-01-07T10:32:21;2.60;99.90
27848;DHT22;15212;48.830;8.730;2024-01-07T10:34:51;2.50;99.90
27848;DHT22;15212;48.830;8.730;2024-01-07T10:37:22;2.50;99.90
27848;DHT22;15212;48.830;8.730;2024-01-07T10:39:51;2.40;99.90
27848;DHT22;15212;48.830;8.730;2024-01-07T10:42:20;2.40;99.90
27848;DHT22;15212;48.830;8.730;2024-01-07T10:44:48;2.40;99.90
27848;DHT22;15212;48.830;8.730;2024-01-07T10:47:18;2.40;99.90
27848;DHT22;15212;48.830;8.730;2024-01-07T10:49:49;2.40;99.90
27848;DHT22;15212;48.830;8.730;2024-01-07T10:52:18;2.40;99.90
27848;DHT22;15212;48.830;8.730;2024-01-07T10:54:47;2.40;99.90
27848;DHT22;15212;48.830;8.730;2024-01-07T11:00:13;2.40;99.90
27848;DHT22;15212;48.830;8.730;2024-01-07T11:03:10;2.50;99.90
27848;DHT22;15212;48.830;8.730;2024-01-07T11:05:54;2.50;99.90
27848;DHT22;15212;48.830;8.730;2024-01-07T11:08:30;2.40;99.90
27848;DHT22;15212;48.830;8.730;2024-01-07T11:11:19;2.40;99.90
27848;DHT22;15212;48.830;8.730;2024-01-07T11:13:53;2.40;99.90
27848;DHT22;15212;48.830;8.730;2024-01-07T11:16:41;2.30;99.90
27848;DHT22;15212;48.830;8.730;2024-01-07T11:19:14;2.30;99.90
27848;DHT22;15212;48.830;8.730;2024-01-07T11:21:43;2.30;99.90
27848;DHT22;15212;48.830;8.730;2024-01-07T11:27:10;2.30;99.90
27848;DHT22;15212;48.830;8.730;2024-01-07T11:29:38;2.20;99.90
27848;DHT22;15212;48.830;8.730;2024-01-07T11:32:08;2.30;99.90
27848;DHT22;15212;48.830;8.730;2024-01-07T11:34:43;2.30;99.90
27848;DHT22;15212;48.830;8.730;2024-01-07T11:37:14;2.30;99.90
27848;DHT22;15212;48.830;8.730;2024-01-07T11:39:43;2.30;99.90
27848;DHT22;15212;48.830;8.730;2024-01-07T11:42:16;2.20;99.90
27848;DHT22;15212;48.830;8.730;2024-01-07T11:44:49;2.10;99.90
27848;DHT22;15212;48.830;8.730;2024-01-07T11:47:22;2.00;99.90
27848;DHT22;15212;48.830;8.730;2024-01-07T11:49:53;2.00;99.90
27848;DHT22;15212;48.830;8.730;2024-01-07T11:52:21;2.00;99.90
27848;DHT22;15212;48.830;8.730;2024-01-07T11:54:50;2.00;99.90
27848;DHT22;15212;48.830;8.730;2024-01-07T11:57:18;2.00;99.90
27848;DHT22;15212;48.830;8.730;2024-01-07T11:59:47;2.00;99.90
27848;DHT22;15212;48.830;8.730;2024-01-07T12:02:15;2.00;99.90
27848;DHT22;15212;48.830;8.730;2024-01-07T12:04:44;2.10;99.90
27848;DHT22;15212;48.830;8.730;2024-01-07T12:07:12;2.00;99.90
27848;DHT22;15212;48.830;8.730;2024-01-07T12:09:41;2.00;99.90
27848;DHT22;15212;48.830;8.730;2024-01-07T12:12:09;2.00;99.90
27848;DHT22;15212;48.830;8.730;2024-01-07T12:14:38;2.00;99.90
27848;DHT22;15212;48.830;8.730;2024-01-07T12:17:08;1.90;99.90
27848;DHT22;15212;48.830;8.730;2024-01-07T12:19:37;1.90;99.90
27848;DHT22;15212;48.830;8.730;2024-01-07T12:22:07;1.90;99.90
27848;DHT22;15212;48.830;8.730;2024-01-07T12:24:35;1.90;99.90
27848;DHT22;15212;48.830;8.730;2024-01-07T12:27:05;1.80;99.90
27848;DHT22;15212;48.830;8.730;2024-01-07T12:29:33;1.80;99.90
27848;DHT22;15212;48.830;8.730;2024-01-07T12:32:02;1.80;99.90
27848;DHT22;15212;48.830;8.730;2024-01-07T12:34:30;1.80;99.90
27848;DHT22;15212;48.830;8.730;2024-01-07T12:36:59;1.80;99.90
27848;DHT22;15212;48.830;8.730;2024-01-07T12:39:28;1.80;99.90
27848;DHT22;15212;48.830;8.730;2024-01-07T12:41:57;1.70;99.90
27848;DHT22;15212;48.830;8.730;2024-01-07T12:44:27;1.70;99.90
27848;DHT22;15212;48.830;8.730;2024-01-07T12:46:55;1.70;99.90
27848;DHT22;15212;48.830;8.730;2024-01-07T12:49:24;1.70;99.90
27848;DHT22;15212;48.830;8.730;2024-01-07T12:51:52;1.60;99.90
27848;DHT22;15212;48.830;8.730;2024-01-07T12:54:21;1.70;99.90
27848;DHT22;15212;48.830;8.730;2024-01-07T12:56:51;1.70;99.90
27848;DHT22;15212;48.830;8.730;2024-01-07T12:59:19;1.70;99.90
27848;DHT22;15212;48.830;8.730;2024-01-07T13:01:47;1.70;99.90
27848;DHT22;15212;48.830;8.730;2024-01-07T13:04:18;1.70;99.90
27848;DHT22;15212;48.830;8.730;2024-01-07T13:06:47;1.60;99.90
27848;DHT22;15212;48.830;8.730;2024-01-07T13:09:15;1.60;99.90
27848;DHT22;15212;48.830;8.730;2024-01-07T13:11:43;1.50;99.90
27848;DHT22;15212;48.830;8.730;2024-01-07T13:14:12;1.50;99.90
27848;DHT22;15212;48.830;8.730;2024-01-07T13:16:40;1.50;99.90
27848;DHT22;15212;48.830;8.730;2024-01-07T13:19:09;1.50;99.90
27848;DHT22;15212;48.830;8.730;2024-01-07T13:21:38;1.50;99.90
27848;DHT22;15212;48.830;8.730;2024-01-07T13:24:07;1.50;99.90
27848;DHT22;15212;48.830;8.730;2024-01-07T13:26:35;1.50;99.90
27848;DHT22;15212;48.830;8.730;2024-01-07T13:29:04;1.50;99.90
27848;DHT22;15212;48.830;8.730;2024-01-07T13:31:32;1.50;99.90
27848;DHT22;15212;48.830;8.730;2024-01-07T13:34:00;1.40;99.90
27848;DHT22;15212;48.830;8.730;2024-01-07T13:36:30;1.40;99.90
27848;DHT22;15212;48.830;8.730;2024-01-07T13:38:58;1.40;99.90
27848;DHT22;15212;48.830;8.730;2024-01-07T13:41:26;1.30;99.90
27848;DHT22;15212;48.830;8.730;2024-01-07T13:43:55;1.30;99.90
27848;DHT22;15212;48.830;8.730;2024-01-07T13:46:24;1.30;99.90
27848;DHT22;15212;48.830;8.730;2024-01-07T13:48:52;1.30;99.90
27848;DHT22;15212;48.830;8.730;2024-01-07T13:51:21;1.20;99.90
27848;DHT22;15212;48.830;8.730;2024-01-07T13:53:49;1.20;99.90
27848;DHT22;15212;48.830;8.730;2024-01-07T13:56:17;1.20;99.90
27848;DHT22;15212;48.830;8.730;2024-01-07T13:58:46;1.10;99.90
27848;DHT22;15212;48.830;8.730;2024-01-07T14:01:16;1.10;99.90
27848;DHT22;15212;48.830;8.730;2024-01-07T14:03:44;1.00;99.90
27848;DHT22;15212;48.830;8.730;2024-01-07T14:06:13;1.00;99.90
27848;DHT22;15212;48.830;8.730;2024-01-07T14:08:41;1.10;99.90
27848;DHT22;15212;48.830;8.730;2024-01-07T14:11:10;1.10;99.90
27848;DHT22;15212;48.830;8.730;2024-01-07T14:13:38;1.00;99.90
27848;DHT22;15212;48.830;8.730;2024-01-07T14:16:06;1.00;99.90
27848;DHT22;15212;48.830;8.730;2024-01-07T14:18:35;1.00;99.90
27848;DHT22;15212;48.830;8.730;2024-01-07T14:21:03;1.00;99.90
27848;DHT22;15212;48.830;8.730;2024-01-07T14:23:33;0.90;99.90
27848;DHT22;15212;48.830;8.730;2024-01-07T14:26:02;0.90;99.90
27848;DHT22;15212;48.830;8.730;2024-01-07T14:28:31;1.00;99.90
27848;DHT22;15212;48.830;8.730;2024-01-07T14:30:59;1.00;99.90
27848;DHT22;15212;48.830;8.730;2024-01-07T14:33:27;0.90;99.90
27848;DHT22;15212;48.830;8.730;2024-01-07T14:35:56;0.90;99.90
27848;DHT22;15212;48.830;8.730;2024-01-07T14:38:24;0.90;99.90
27848;DHT22;15212;48.830;8.730;2024-01-07T14:40:53;0.80;99.90
27848;DHT22;15212;48.830;8.730;2024-01-07T14:43:23;0.80;99.90
27848;DHT22;15212;48.830;8.730;2024-01-07T14:45:52;0.80;99.90
27848;DHT22;15212;48.830;8.730;2024-01-07T14:48:20;0.70;99.90
27848;DHT22;15212;48.830;8.730;2024-01-07T14:50:49;0.70;99.90
27848;DHT22;15212;48.830;8.730;2024-01-07T14:53:18;0.60;99.90
27848;DHT22;15212;48.830;8.730;2024-01-07T14:55:46;0.70;99.90
27848;DHT22;15212;48.830;8.730;2024-01-07T14:58:15;0.70;99.90
27848;DHT22;15212;48.830;8.730;2024-01-07T15:00:44;0.70;99.90
27848;DHT22;15212;48.830;8.730;2024-01-07T15:03:13;0.70;99.90
27848;DHT22;15212;48.830;8.730;2024-01-07T15:05:43;0.70;99.90
27848;DHT22;15212;48.830;8.730;2024-01-07T15:08:12;0.60;99.90
27848;DHT22;15212;48.830;8.730;2024-01-07T15:10:41;0.60;99.90
27848;DHT22;15212;48.830;8.730;2024-01-07T15:13:09;0.50;99.90
27848;DHT22;15212;48.830;8.730;2024-01-07T15:15:38;0.50;99.90
27848;DHT22;15212;48.830;8.730;2024-01-07T15:18:06;0.50;99.90
27848;DHT22;15212;48.830;8.730;2024-01-07T15:20:35;0.40;99.90
27848;DHT22;15212;48.830;8.730;2024-01-07T15:23:03;0.50;99.90
27848;DHT22;15212;48.830;8.730;2024-01-07T15:25:31;0.50;99.90
27848;DHT22;15212;48.830;8.730;2024-01-07T15:28:00;0.50;99.90
27848;DHT22;15212;48.830;8.730;2024-01-07T15:30:28;0.50;99.90
27848;DHT22;15212;48.830;8.730;2024-01-07T15:32:57;0.50;99.90
27848;DHT22;15212;48.830;8.730;2024-01-07T15:35:25;0.50;99.90
27848;DHT22;15212;48.830;8.730;2024-01-07T15:37:53;0.50;99.90
27848;DHT22;15212;48.830;8.730;2024-01-07T15:40:24;0.40;99.90
27848;DHT22;15212;48.830;8.730;2024-01-07T15:42:53;0.30;99.90
27848;DHT22;15212;48.830;8.730;2024-01-07T15:45:21;0.30;99.90
27848;DHT22;15212;48.830;8.730;2024-01-07T15:47:50;0.30;99.90
27848;DHT22;15212;48.830;8.730;2024-01-07T15:50:18;0.30;99.90
27848;DHT22;15212;48.830;8.730;2024-01-07T15:52:46;0.40;99.90
27848;DHT22;15212;48.830;8.730;2024-01-07T15:55:15;0.40;99.90
27848;DHT22;15212;48.830;8.730;2024-01-07T15:57:44;0.40;99.90
27848;DHT22;15212;48.830;8.730;2024-01-07T16:00:14;0.50;99.90